Terminal Aerodrome Forecast
Issued by NWS Springfield, MO

Home | Current Version | Previous Version | Text Only | Print | Product List | Glossary On
Versions: 1 2 3 4 5 6 7 8 9 10 11 12 13 14
000
FTUS43 KSGF 211654 AAB
TAFSGF
TAF AMD
KSGF 211654Z 2117/2212 17014G24KT P6SM SCT040 SCT060
     FM212000 17018G25KT P6SM BKN040
     FM220500 19018G25KT 5SM -TSRA OVC020CB WS020/18040KT
     FM221000 30011KT 6SM -SHRA OVC008=

USA.gov is the U.S. government's official web portal to all federal, state and local government web resources and services.